createdAt,value
2023-05-02T00:00:29.595Z,1647.00
2023-05-02T00:01:29.280Z,1645.00
2023-05-02T00:02:29.426Z,1640.00
2023-05-02T00:03:29.532Z,1644.00
2023-05-02T00:04:29.506Z,1648.00
2023-05-02T00:05:29.410Z,1637.00
2023-05-02T00:06:29.593Z,1633.00
2023-05-02T00:07:29.487Z,1632.00
2023-05-02T00:08:29.501Z,1631.00
2023-05-02T00:09:29.534Z,1632.00
2023-05-02T00:10:29.565Z,1629.00
2023-05-02T00:11:29.613Z,1635.00
2023-05-02T00:12:29.670Z,1631.00
2023-05-02T00:13:29.707Z,1626.00
2023-05-02T00:14:29.715Z,1621.00
2023-05-02T00:15:29.734Z,1623.00
2023-05-02T00:16:29.876Z,1616.00
2023-05-02T00:17:29.818Z,1629.00
2023-05-02T00:18:29.837Z,1634.00
2023-05-02T00:19:29.874Z,1618.00
2023-05-02T00:20:29.854Z,1599.00
2023-05-02T00:21:29.893Z,1613.00
2023-05-02T00:22:29.924Z,1620.00
2023-05-02T00:23:29.979Z,1616.00
2023-05-02T00:24:30.022Z,1623.00
2023-05-02T00:25:30.019Z,1618.00
2023-05-02T00:26:30.083Z,1611.00
2023-05-02T00:27:30.125Z,1593.00
2023-05-02T00:28:30.118Z,1607.00
2023-05-02T00:29:30.164Z,1608.00
2023-05-02T00:30:30.207Z,1612.00
2023-05-02T00:31:30.296Z,1601.00
2023-05-02T00:32:30.276Z,1599.00
2023-05-02T00:33:30.350Z,1611.00
2023-05-02T00:34:30.385Z,1601.00
2023-05-02T00:35:30.358Z,1593.00
2023-05-02T00:36:30.444Z,1609.00
2023-05-02T00:37:30.451Z,1602.00
2023-05-02T00:38:30.465Z,1594.00
2023-05-02T00:39:30.485Z,1594.00
2023-05-02T00:40:30.549Z,1590.00
2023-05-02T00:41:30.610Z,1587.00
2023-05-02T00:42:30.615Z,1591.00
2023-05-02T00:43:30.647Z,1607.00
2023-05-02T00:44:30.648Z,1581.00
2023-05-02T00:45:30.705Z,1588.00
2023-05-02T00:46:30.738Z,1588.00
2023-05-02T00:47:30.840Z,1584.00
2023-05-02T00:48:30.814Z,1580.00
2023-05-02T00:49:30.839Z,1578.00
2023-05-02T00:50:30.900Z,1584.00
2023-05-02T00:51:30.903Z,1579.00
2023-05-02T00:52:30.952Z,1577.00
2023-05-02T00:53:30.965Z,1581.00
2023-05-02T00:54:31.027Z,1559.00
2023-05-02T00:55:31.088Z,1578.00
2023-05-02T00:56:31.099Z,1567.00
2023-05-02T00:57:31.154Z,1570.00
2023-05-02T00:58:31.158Z,1564.00
2023-05-02T00:59:31.212Z,1558.00
2023-05-02T01:00:31.232Z,1548.00
2023-05-02T01:01:31.345Z,1555.00
2023-05-02T01:02:31.396Z,1563.00
2023-05-02T01:03:31.495Z,1556.00
2023-05-02T01:04:31.357Z,1563.00
2023-05-02T01:05:31.402Z,1555.00
2023-05-02T01:06:31.566Z,1560.00
2023-05-02T01:07:31.484Z,1556.00
2023-05-02T01:08:31.511Z,1550.00
2023-05-02T01:09:31.527Z,1547.00
2023-05-02T01:10:31.583Z,1550.00
2023-05-02T01:11:32.107Z,1539.00
2023-05-02T01:12:31.669Z,1547.00
2023-05-02T01:13:31.712Z,1554.00
2023-05-02T01:14:31.722Z,1548.00
2023-05-02T01:15:31.759Z,1534.00
2023-05-02T01:16:31.799Z,1546.00
2023-05-02T01:17:31.831Z,1537.00
2023-05-02T01:18:31.912Z,1540.00
2023-05-02T01:19:31.915Z,1527.00
2023-05-02T01:20:31.965Z,1536.00
2023-05-02T01:21:32.031Z,1545.00
2023-05-02T01:22:32.025Z,1533.00
2023-05-02T01:23:32.079Z,1525.00
2023-05-02T01:24:32.156Z,1537.00
2023-05-02T01:25:32.159Z,1543.00
2023-05-02T01:26:32.215Z,1532.00
2023-05-02T01:27:32.212Z,1528.00
2023-05-02T01:28:32.300Z,1525.00
2023-05-02T01:29:32.285Z,1511.00
2023-05-02T01:30:32.310Z,1523.00
2023-05-02T01:31:32.641Z,1528.00
2023-05-02T01:32:32.463Z,1518.00
2023-05-02T01:33:32.448Z,1516.00
2023-05-02T01:34:32.482Z,1509.00
2023-05-02T01:35:32.532Z,1524.00
2023-05-02T01:36:32.669Z,1513.00
2023-05-02T01:37:32.667Z,1514.00
2023-05-02T01:38:32.719Z,1509.00
2023-05-02T01:39:32.680Z,1509.00
2023-05-02T01:40:32.752Z,1505.00
2023-05-02T01:41:32.786Z,1499.00
2023-05-02T01:42:32.732Z,1498.00
2023-05-02T01:43:32.780Z,1512.00
2023-05-02T01:44:32.814Z,1503.00
2023-05-02T01:45:32.866Z,1504.00
2023-05-02T01:46:32.921Z,1501.00
2023-05-02T01:47:32.963Z,1493.00
2023-05-02T01:48:32.920Z,1481.00
2023-05-02T01:49:32.935Z,1484.00
2023-05-02T01:50:32.993Z,1489.00
2023-05-02T01:51:33.013Z,1499.00
2023-05-02T01:52:33.021Z,1489.00
2023-05-02T01:53:33.077Z,1488.00
2023-05-02T01:54:33.066Z,1480.00
2023-05-02T01:55:33.085Z,1486.00
2023-05-02T01:56:33.646Z,1490.00
2023-05-02T01:57:33.149Z,1487.00
2023-05-02T01:58:33.167Z,1475.00
2023-05-02T01:59:33.193Z,1475.00
2023-05-02T02:00:33.356Z,1479.00
2023-05-02T02:01:33.391Z,1477.00
2023-05-02T02:02:33.333Z,1483.00
2023-05-02T02:03:33.427Z,1477.00
2023-05-02T02:04:33.429Z,1474.00
2023-05-02T02:05:33.416Z,1478.00
2023-05-02T02:06:33.699Z,1461.00
2023-05-02T02:07:33.576Z,1473.00
2023-05-02T02:08:33.535Z,1471.00
2023-05-02T02:09:33.601Z,1462.00
2023-05-02T02:10:33.543Z,1473.00
2023-05-02T02:11:33.565Z,1479.00
2023-05-02T02:12:33.610Z,1461.00
2023-05-02T02:13:33.662Z,1459.00
2023-05-02T02:14:33.659Z,1453.00
2023-05-02T02:15:33.740Z,1469.00
2023-05-02T02:16:34.209Z,1462.00
2023-05-02T02:17:33.768Z,1458.00
2023-05-02T02:18:33.762Z,1459.00
2023-05-02T02:19:33.767Z,1448.00
2023-05-02T02:20:33.807Z,1456.00
2023-05-02T02:21:34.122Z,1444.00
2023-05-02T02:22:33.883Z,1450.00
2023-05-02T02:23:33.859Z,1441.00
2023-05-02T02:24:33.895Z,1433.00
2023-05-02T02:25:33.927Z,1443.00
2023-05-02T02:26:34.106Z,1438.00
2023-05-02T02:27:33.970Z,1439.00
2023-05-02T02:28:33.973Z,1438.00
2023-05-02T02:29:34.028Z,1438.00
2023-05-02T02:30:34.085Z,1433.00
2023-05-02T02:31:34.290Z,1432.00
2023-05-02T02:32:34.070Z,1435.00
2023-05-02T02:33:34.165Z,1423.00
2023-05-02T02:34:34.122Z,1420.00
2023-05-02T02:35:34.142Z,1432.00
2023-05-02T02:36:34.178Z,1431.00
2023-05-02T02:37:34.183Z,1432.00
2023-05-02T02:38:34.254Z,1418.00
2023-05-02T02:39:34.307Z,1424.00
2023-05-02T02:40:34.284Z,1421.00
2023-05-02T02:41:34.591Z,1423.00
2023-05-02T02:42:34.385Z,1413.00
2023-05-02T02:43:34.366Z,1412.00
2023-05-02T02:44:34.399Z,1425.00
2023-05-02T02:45:34.456Z,1420.00
2023-05-02T02:46:34.705Z,1417.00
2023-05-02T02:47:34.511Z,1431.00
2023-05-02T02:48:34.583Z,1403.00
2023-05-02T02:49:34.572Z,1422.00
2023-05-02T02:50:34.588Z,1408.00
2023-05-02T02:51:35.149Z,1403.00
2023-05-02T02:52:34.662Z,1407.00
2023-05-02T02:53:34.705Z,1399.00
2023-05-02T02:54:34.736Z,1404.00
2023-05-02T02:55:34.770Z,1397.00
2023-05-02T02:56:34.785Z,1404.00
2023-05-02T02:57:34.770Z,1397.00
2023-05-02T02:58:34.865Z,1394.00
2023-05-02T02:59:34.863Z,1393.00
2023-05-02T03:00:34.858Z,1401.00
2023-05-02T03:01:34.945Z,1388.00
2023-05-02T03:02:34.940Z,1390.00
2023-05-02T03:03:35.023Z,1395.00
2023-05-02T03:04:34.907Z,1389.00
2023-05-02T03:05:34.962Z,1400.00
2023-05-02T03:06:35.129Z,1393.00
2023-05-02T03:07:35.595Z,1394.00
2023-05-02T03:08:35.026Z,1373.00
2023-05-02T03:09:35.059Z,1389.00
2023-05-02T03:10:35.134Z,1389.00
2023-05-02T03:11:35.650Z,1386.00
2023-05-02T03:12:35.184Z,1365.00
2023-05-02T03:13:35.332Z,1395.00
2023-05-02T03:14:35.184Z,1376.00
2023-05-02T03:15:35.238Z,1392.00
2023-05-02T03:16:35.378Z,1367.00
2023-05-02T03:17:35.315Z,1382.00
2023-05-02T03:18:35.314Z,1376.00
2023-05-02T03:19:35.413Z,1372.00
2023-05-02T03:20:35.381Z,1383.00
2023-05-02T03:21:35.453Z,1359.00
2023-05-02T03:22:35.424Z,1363.00
2023-05-02T03:23:35.454Z,1365.00
2023-05-02T03:24:35.487Z,1366.00
2023-05-02T03:25:35.521Z,1353.00
2023-05-02T03:26:35.567Z,1367.00
2023-05-02T03:27:35.592Z,1364.00
2023-05-02T03:28:36.142Z,1350.00
2023-05-02T03:29:35.607Z,1345.00
2023-05-02T03:30:35.645Z,1358.00
2023-05-02T03:31:35.732Z,1356.00
2023-05-02T03:32:35.689Z,1356.00
2023-05-02T03:33:35.661Z,1341.00
2023-05-02T03:34:35.718Z,1345.00
2023-05-02T03:35:35.708Z,1344.00
2023-05-02T03:36:35.753Z,1347.00
2023-05-02T03:37:35.729Z,1359.00
2023-05-02T03:38:35.858Z,1341.00
2023-05-02T03:39:35.823Z,1336.00
2023-05-02T03:40:35.882Z,1333.00
2023-05-02T03:41:35.858Z,1334.00
2023-05-02T03:42:35.848Z,1343.00
2023-05-02T03:43:35.876Z,1327.00
2023-05-02T03:44:35.922Z,1345.00
2023-05-02T03:45:36.642Z,1337.00
2023-05-02T03:46:35.996Z,1332.00
2023-05-02T03:47:36.022Z,1343.00
2023-05-02T03:48:36.043Z,1332.00
2023-05-02T03:49:36.016Z,1328.00
2023-05-02T03:50:36.079Z,1331.00
2023-05-02T03:51:36.115Z,1331.00
2023-05-02T03:52:36.111Z,1317.00
2023-05-02T03:53:36.172Z,1324.00
2023-05-02T03:54:36.186Z,1326.00
2023-05-02T03:55:36.189Z,1313.00
2023-05-02T03:56:36.306Z,1325.00
2023-05-02T03:57:36.278Z,1316.00
2023-05-02T03:58:36.344Z,1310.00
2023-05-02T03:59:36.420Z,1300.00
2023-05-02T04:00:36.490Z,1324.00
2023-05-02T04:01:36.510Z,1307.00
2023-05-02T04:02:36.639Z,1295.00
2023-05-02T04:03:36.681Z,1303.00
2023-05-02T04:04:36.736Z,1304.00
2023-05-02T04:05:36.608Z,1307.00
2023-05-02T04:06:36.694Z,1309.00
2023-05-02T04:07:36.680Z,1315.00
2023-05-02T04:08:36.677Z,1296.00
2023-05-02T04:09:36.721Z,1307.00
2023-05-02T04:10:36.744Z,1294.00
2023-05-02T04:11:36.815Z,1306.00
2023-05-02T04:12:36.824Z,1302.00
2023-05-02T04:13:36.877Z,1306.00
2023-05-02T04:14:36.883Z,1306.00
2023-05-02T04:15:36.887Z,1297.00
2023-05-02T04:16:37.227Z,1293.00
2023-05-02T04:17:37.051Z,1296.00
2023-05-02T04:18:36.991Z,1292.00
2023-05-02T04:19:37.064Z,1303.00
2023-05-02T04:20:37.073Z,1289.00
2023-05-02T04:21:37.118Z,1279.00
2023-05-02T04:22:37.169Z,1284.00
2023-05-02T04:23:37.180Z,1290.00
2023-05-02T04:24:37.199Z,1280.00
2023-05-02T04:25:37.268Z,1277.00
2023-05-02T04:26:37.322Z,1288.00
2023-05-02T04:27:37.312Z,1285.00
2023-05-02T04:28:37.344Z,1275.00
2023-05-02T04:29:37.398Z,1277.00
2023-05-02T04:30:37.465Z,1282.00
2023-05-02T04:31:37.464Z,1282.00
2023-05-02T04:32:37.495Z,1285.00
2023-05-02T04:33:37.524Z,1268.00
2023-05-02T04:34:37.528Z,1275.00
2023-05-02T04:35:37.547Z,1271.00
2023-05-02T04:36:37.591Z,1262.00
2023-05-02T04:37:38.139Z,1276.00
2023-05-02T04:38:37.695Z,1271.00
2023-05-02T04:39:37.720Z,1265.00
2023-05-02T04:40:37.781Z,1264.00
2023-05-02T04:41:37.837Z,1259.00
2023-05-02T04:42:37.843Z,1265.00
2023-05-02T04:43:37.844Z,1253.00
2023-05-02T04:44:37.902Z,1256.00
2023-05-02T04:45:37.972Z,1267.00
2023-05-02T04:46:37.992Z,1258.00
2023-05-02T04:47:38.239Z,1264.00
2023-05-02T04:48:38.021Z,1251.00
2023-05-02T04:49:38.027Z,1250.00
2023-05-02T04:50:38.097Z,1248.00
2023-05-02T04:51:38.089Z,1240.00
2023-05-02T04:52:38.127Z,1234.00
2023-05-02T04:53:38.142Z,1194.00
2023-05-02T04:54:38.230Z,1140.00
2023-05-02T04:55:38.241Z,1111.00
2023-05-02T04:56:38.281Z,1069.00
2023-05-02T04:57:38.307Z,993.00
2023-05-02T04:58:38.399Z,947.00
2023-05-02T04:59:38.418Z,926.00
2023-05-02T05:00:38.484Z,880.00
2023-05-02T05:01:38.576Z,832.00
2023-05-02T05:02:38.614Z,802.00
2023-05-02T05:03:38.778Z,780.00
2023-05-02T05:04:39.673Z,747.00
2023-05-02T05:05:38.808Z,694.00
2023-05-02T05:06:38.900Z,684.00
2023-05-02T05:07:38.767Z,660.00
2023-05-02T05:08:38.838Z,648.00
2023-05-02T05:09:38.890Z,641.00
2023-05-02T05:10:38.945Z,630.00
2023-05-02T05:11:38.999Z,622.00
2023-05-02T05:12:39.067Z,611.00
2023-05-02T05:13:39.079Z,603.00
2023-05-02T05:14:39.135Z,599.00
2023-05-02T05:15:39.157Z,587.00
2023-05-02T05:16:39.427Z,577.00
2023-05-02T05:17:39.358Z,572.00
2023-05-02T05:18:39.369Z,564.00
2023-05-02T05:19:39.438Z,556.00
2023-05-02T05:20:39.451Z,556.00
2023-05-02T05:21:39.494Z,549.00
2023-05-02T05:22:39.497Z,548.00
2023-05-02T05:23:39.504Z,553.00
2023-05-02T05:24:39.560Z,558.00
2023-05-02T05:25:39.668Z,554.00
2023-05-02T05:26:39.719Z,549.00
2023-05-02T05:27:39.784Z,558.00
2023-05-02T05:28:39.744Z,560.00
2023-05-02T05:29:39.853Z,561.00
2023-05-02T05:30:39.924Z,612.00
2023-05-02T05:31:40.000Z,608.00
2023-05-02T05:32:40.066Z,601.00
2023-05-02T05:33:40.201Z,571.00
2023-05-02T05:34:40.151Z,574.00
2023-05-02T05:35:40.191Z,575.00
2023-05-02T05:36:40.230Z,563.00
2023-05-02T05:37:40.289Z,575.00
2023-05-02T05:38:40.338Z,572.00
2023-05-02T05:39:40.389Z,572.00
2023-05-02T05:40:40.437Z,572.00
2023-05-02T05:41:40.524Z,576.00
2023-05-02T05:42:40.553Z,581.00
2023-05-02T05:43:40.620Z,600.00
2023-05-02T05:44:40.683Z,629.00
2023-05-02T05:45:40.728Z,748.00
2023-05-02T05:46:40.889Z,749.00
2023-05-02T05:47:40.975Z,702.00
2023-05-02T05:48:40.919Z,854.00
2023-05-02T05:49:40.966Z,891.00
2023-05-02T05:50:41.068Z,940.00
2023-05-02T05:51:41.131Z,1034.00
2023-05-02T05:52:41.214Z,1161.00
2023-05-02T05:53:41.207Z,1234.00
2023-05-02T05:54:41.254Z,1204.00
2023-05-02T05:55:42.435Z,1240.00
2023-05-02T05:56:41.319Z,1298.00
2023-05-02T05:57:41.383Z,1403.00
2023-05-02T05:58:41.393Z,1452.00
2023-05-02T05:59:41.450Z,1477.00
2023-05-02T06:00:41.461Z,1541.00
2023-05-02T06:01:41.475Z,1584.00
2023-05-02T06:02:41.554Z,1664.00
2023-05-02T06:03:41.749Z,1662.00
2023-05-02T06:04:41.626Z,1746.00
2023-05-02T06:05:41.633Z,1764.00
2023-05-02T06:06:41.691Z,1773.00
2023-05-02T06:07:41.616Z,1782.00
2023-05-02T06:08:41.571Z,1802.00
2023-05-02T06:09:41.630Z,1834.00
2023-05-02T06:10:41.634Z,1842.00
2023-05-02T06:11:41.590Z,1868.00
2023-05-02T06:12:41.602Z,1874.00
2023-05-02T06:13:41.742Z,1882.00
2023-05-02T06:14:41.666Z,1863.00
2023-05-02T06:15:41.691Z,1879.00
2023-05-02T06:16:41.701Z,1885.00
2023-05-02T06:17:41.835Z,1872.00
2023-05-02T06:18:41.713Z,1875.00
2023-05-02T06:19:41.678Z,1879.00
2023-05-02T06:20:41.695Z,1854.00
2023-05-02T06:21:41.751Z,1883.00
2023-05-02T06:22:41.745Z,1884.00
2023-05-02T06:23:41.781Z,1887.00
2023-05-02T06:24:41.854Z,1894.00
2023-05-02T06:25:41.845Z,1885.00
2023-05-02T06:26:41.883Z,1914.00
2023-05-02T06:27:41.951Z,1919.00
2023-05-02T06:28:42.013Z,1928.00
2023-05-02T06:29:41.991Z,1959.00
2023-05-02T06:30:42.024Z,1953.00
2023-05-02T06:31:42.126Z,1991.00
2023-05-02T06:32:42.167Z,1982.00
2023-05-02T06:33:42.242Z,1967.00
2023-05-02T06:34:42.325Z,2017.00
2023-05-02T06:35:42.346Z,2011.00
2023-05-02T06:36:42.372Z,2004.00
2023-05-02T06:37:42.468Z,2019.00
2023-05-02T06:38:42.554Z,2034.00
2023-05-02T06:39:42.601Z,2015.00
2023-05-02T06:40:42.634Z,2040.00
2023-05-02T06:41:42.718Z,2012.00
2023-05-02T06:42:42.742Z,2005.00
2023-05-02T06:43:42.780Z,2003.00
2023-05-02T06:44:42.823Z,2030.00
2023-05-02T06:45:42.853Z,2002.00
2023-05-02T06:46:43.051Z,2032.00
2023-05-02T06:47:43.035Z,2006.00
2023-05-02T06:48:42.988Z,1982.00
2023-05-02T06:49:43.006Z,1969.00
2023-05-02T06:50:43.049Z,1995.00
2023-05-02T06:51:43.138Z,2057.00
2023-05-02T06:52:43.139Z,1982.00
2023-05-02T06:53:43.194Z,1956.00
2023-05-02T06:54:43.179Z,1969.00
2023-05-02T06:55:43.266Z,1987.00
2023-05-02T06:56:43.270Z,2025.00
2023-05-02T06:57:43.328Z,2012.00
2023-05-02T06:58:43.546Z,1978.00
2023-05-02T06:59:43.401Z,2002.00
2023-05-02T07:00:43.481Z,2015.00
2023-05-02T07:01:43.517Z,1478.00
2023-05-02T07:02:43.567Z,1244.00
2023-05-02T07:03:43.592Z,1078.00
2023-05-02T07:04:43.803Z,995.00
2023-05-02T07:05:43.577Z,1025.00
2023-05-02T07:06:43.644Z,1029.00
2023-05-02T07:07:43.574Z,1078.00
2023-05-02T07:08:43.584Z,1005.00
2023-05-02T07:09:43.585Z,978.00
2023-05-02T07:10:43.610Z,1030.00
2023-05-02T07:11:43.602Z,1088.00
2023-05-02T07:12:43.683Z,1183.00
2023-05-02T07:13:43.632Z,1235.00
2023-05-02T07:14:43.635Z,1232.00
2023-05-02T07:15:43.696Z,1119.00
2023-05-02T07:16:43.667Z,1235.00
2023-05-02T07:17:43.715Z,1256.00
2023-05-02T07:18:43.679Z,1101.00
2023-05-02T07:19:45.369Z,1159.00
2023-05-02T07:20:43.686Z,1209.00
2023-05-02T07:21:43.681Z,1231.00
2023-05-02T07:22:43.701Z,1269.00
2023-05-02T07:23:43.689Z,1264.00
2023-05-02T07:24:43.724Z,1304.00
2023-05-02T07:25:43.754Z,1363.00
2023-05-02T07:26:43.835Z,1396.00
2023-05-02T07:27:43.877Z,1410.00
2023-05-02T07:28:43.953Z,1424.00
2023-05-02T07:29:43.976Z,1440.00
2023-05-02T07:30:44.064Z,1555.00
2023-05-02T07:31:44.190Z,1573.00
2023-05-02T07:32:44.157Z,1567.00
2023-05-02T07:33:44.228Z,1551.00
2023-05-02T07:34:44.249Z,1600.00
2023-05-02T07:35:44.292Z,1613.00
2023-05-02T07:36:44.343Z,1633.00
2023-05-02T07:37:44.402Z,1626.00
2023-05-02T07:38:44.516Z,1628.00
2023-05-02T07:39:44.432Z,1647.00
2023-05-02T07:40:44.474Z,1632.00
2023-05-02T07:41:44.526Z,1619.00
2023-05-02T07:42:44.534Z,1634.00
2023-05-02T07:43:44.548Z,1641.00
2023-05-02T07:44:51.621Z,1641.00
2023-05-02T07:45:44.657Z,1644.00
2023-05-02T07:46:44.624Z,1653.00
2023-05-02T07:47:44.582Z,1654.00
2023-05-02T07:48:44.586Z,1558.00
2023-05-02T07:49:44.586Z,1577.00
2023-05-02T07:50:44.529Z,1724.00
2023-05-02T07:51:44.556Z,1587.00
2023-05-02T07:52:44.569Z,1607.00
2023-05-02T07:53:44.537Z,1597.00
2023-05-02T07:54:44.514Z,1613.00
2023-05-02T07:55:44.485Z,1706.00
2023-05-02T07:56:44.529Z,1718.00
2023-05-02T07:57:44.776Z,1638.00
2023-05-02T07:58:44.476Z,1624.00
2023-05-02T07:59:44.448Z,1745.00
2023-05-02T08:00:44.465Z,1710.00
2023-05-02T08:01:44.477Z,1698.00
2023-05-02T08:02:44.822Z,1714.00
2023-05-02T08:03:44.598Z,1681.00
2023-05-02T08:04:44.517Z,1612.00
2023-05-02T08:05:44.420Z,1619.00
2023-05-02T08:06:44.484Z,1648.00
2023-05-02T08:07:44.405Z,1595.00
2023-05-02T08:08:44.410Z,1600.00
2023-05-02T08:09:44.383Z,1565.00
2023-05-02T08:10:44.444Z,1560.00
2023-05-02T08:11:44.382Z,1526.00
2023-05-02T08:12:44.387Z,1514.00
2023-05-02T08:13:44.381Z,1508.00
2023-05-02T08:14:44.356Z,1502.00
2023-05-02T08:15:44.392Z,1487.00
2023-05-02T08:16:46.217Z,1467.00
2023-05-02T08:17:44.447Z,1485.00
2023-05-02T08:18:44.442Z,1463.00
2023-05-02T08:19:44.482Z,1453.00
2023-05-02T08:20:44.497Z,1438.00
2023-05-02T08:21:44.512Z,1450.00
2023-05-02T08:22:44.528Z,1420.00
2023-05-02T08:23:44.564Z,1430.00
2023-05-02T08:24:44.630Z,1396.00
2023-05-02T08:25:44.634Z,1387.00
2023-05-02T08:26:44.647Z,1405.00
2023-05-02T08:27:44.706Z,1409.00
2023-05-02T08:28:44.676Z,1392.00
2023-05-02T08:29:44.704Z,1379.00
2023-05-02T08:30:44.777Z,1372.00
2023-05-02T08:31:44.835Z,1370.00
2023-05-02T08:32:45.333Z,1362.00
2023-05-02T08:33:44.806Z,1358.00
2023-05-02T08:34:44.809Z,1361.00
2023-05-02T08:35:44.830Z,1359.00
2023-05-02T08:36:44.885Z,1338.00
2023-05-02T08:37:44.966Z,1331.00
2023-05-02T08:38:44.929Z,1319.00
2023-05-02T08:39:44.944Z,1324.00
2023-05-02T08:40:44.925Z,1316.00
2023-05-02T08:41:44.982Z,1323.00
2023-05-02T08:42:45.031Z,1322.00
2023-05-02T08:43:45.020Z,1275.00
2023-05-02T08:44:45.018Z,1313.00
2023-05-02T08:45:45.052Z,1280.00
2023-05-02T08:46:45.135Z,1275.00
2023-05-02T08:47:45.110Z,1330.00
2023-05-02T08:48:45.099Z,1355.00
2023-05-02T08:49:45.104Z,1441.00
2023-05-02T08:50:45.115Z,1518.00
2023-05-02T08:51:45.110Z,1468.00
2023-05-02T08:52:45.169Z,1529.00
2023-05-02T08:53:45.192Z,1557.00
2023-05-02T08:54:45.226Z,1566.00
2023-05-02T08:55:45.201Z,1540.00
2023-05-02T08:56:45.199Z,1528.00
2023-05-02T08:57:45.267Z,1579.00
2023-05-02T08:58:45.267Z,1517.00
2023-05-02T08:59:45.293Z,1605.00
2023-05-02T09:00:45.297Z,1591.00
2023-05-02T09:01:45.426Z,1612.00
2023-05-02T09:02:45.797Z,1646.00
2023-05-02T09:03:45.300Z,1654.00
2023-05-02T09:04:45.364Z,1619.00
2023-05-02T09:05:45.318Z,1626.00
2023-05-02T09:06:45.489Z,1637.00
2023-05-02T09:07:45.339Z,1626.00
2023-05-02T09:08:45.341Z,1691.00
2023-05-02T09:09:45.337Z,1697.00
2023-05-02T09:10:45.364Z,1677.00
2023-05-02T09:11:45.354Z,1685.00
2023-05-02T09:12:45.416Z,1711.00
2023-05-02T09:13:45.417Z,1688.00
2023-05-02T09:14:45.493Z,1661.00
2023-05-02T09:15:45.481Z,1666.00
2023-05-02T09:16:45.509Z,1673.00
2023-05-02T09:17:45.615Z,1658.00
2023-05-02T09:18:45.558Z,1638.00
2023-05-02T09:19:45.619Z,1651.00
2023-05-02T09:20:45.628Z,1637.00
2023-05-02T09:21:45.680Z,1663.00
2023-05-02T09:22:45.792Z,1649.00
2023-05-02T09:23:45.849Z,1670.00
2023-05-02T09:24:45.860Z,1639.00
2023-05-02T09:25:45.922Z,1625.00
2023-05-02T09:26:45.997Z,1639.00
2023-05-02T09:27:46.289Z,1621.00
2023-05-02T09:28:46.056Z,1591.00
2023-05-02T09:29:46.098Z,1602.00
2023-05-02T09:30:46.187Z,1562.00
2023-05-02T09:31:55.565Z,1556.00
2023-05-02T09:32:47.317Z,1556.00
2023-05-02T09:33:46.179Z,1553.00
2023-05-02T09:34:46.176Z,1558.00
2023-05-02T09:35:46.133Z,1582.00
2023-05-02T09:36:46.198Z,1597.00
2023-05-02T09:37:46.164Z,1599.00
2023-05-02T09:38:46.167Z,1607.00
2023-05-02T09:39:46.172Z,1587.00
2023-05-02T09:40:46.224Z,1615.00
2023-05-02T09:41:46.277Z,1590.00
2023-05-02T09:42:46.353Z,1598.00
2023-05-02T09:43:46.360Z,1657.00
2023-05-02T09:44:46.407Z,1664.00
2023-05-02T09:45:46.496Z,1614.00
2023-05-02T09:46:46.529Z,1491.00
2023-05-02T09:47:46.619Z,1499.00
2023-05-02T09:48:46.624Z,1492.00
2023-05-02T09:49:46.903Z,1447.00
2023-05-02T09:50:46.695Z,1383.00
2023-05-02T09:51:46.701Z,1400.00
2023-05-02T09:52:46.713Z,1431.00
2023-05-02T09:53:46.823Z,1425.00
2023-05-02T09:54:56.750Z,1374.00
2023-05-02T09:55:47.868Z,1363.00
2023-05-02T09:56:46.696Z,1290.00
2023-05-02T09:57:46.692Z,1249.00
2023-05-02T09:58:46.782Z,1220.00
2023-05-02T09:59:46.661Z,1188.00
2023-05-02T10:00:46.679Z,1156.00
2023-05-02T10:01:46.748Z,1092.00
2023-05-02T10:02:46.679Z,1059.00
2023-05-02T10:03:46.802Z,1049.00
2023-05-02T10:04:46.662Z,1040.00
2023-05-02T10:05:46.599Z,958.00
2023-05-02T10:06:46.734Z,927.00
2023-05-02T10:07:46.657Z,890.00
2023-05-02T10:08:46.821Z,864.00
2023-05-02T10:09:46.624Z,848.00
2023-05-02T10:10:46.641Z,837.00
2023-05-02T10:11:46.605Z,818.00
2023-05-02T10:12:46.588Z,823.00
2023-05-02T10:13:46.801Z,818.00
2023-05-02T10:14:46.705Z,753.00
2023-05-02T10:15:46.726Z,733.00
2023-05-02T10:16:46.739Z,739.00
2023-05-02T10:17:46.789Z,748.00
2023-05-02T10:18:47.297Z,738.00
2023-05-02T10:19:46.910Z,697.00
2023-05-02T10:20:46.963Z,663.00
2023-05-02T10:21:46.975Z,657.00
2023-05-02T10:22:47.020Z,659.00
2023-05-02T10:23:47.093Z,653.00
2023-05-02T10:24:47.101Z,673.00
2023-05-02T10:25:47.191Z,658.00
2023-05-02T10:26:47.302Z,636.00
2023-05-02T10:27:47.304Z,638.00
2023-05-02T10:28:47.343Z,630.00
2023-05-02T10:29:47.392Z,637.00
2023-05-02T10:30:47.418Z,635.00
2023-05-02T10:31:47.597Z,613.00
2023-05-02T10:32:47.597Z,621.00
2023-05-02T10:33:47.585Z,612.00
2023-05-02T10:34:47.682Z,605.00
2023-05-02T10:35:47.706Z,587.00
2023-05-02T10:36:47.726Z,581.00
2023-05-02T10:37:47.820Z,541.00
2023-05-02T10:38:47.838Z,538.00
2023-05-02T10:39:47.909Z,570.00
2023-05-02T10:40:47.951Z,530.00
2023-05-02T10:41:47.985Z,500.00
2023-05-02T10:42:48.014Z,500.00
2023-05-02T10:43:48.097Z,500.00
2023-05-02T10:44:48.165Z,505.00
2023-05-02T10:45:48.190Z,501.00
2023-05-02T10:46:48.249Z,500.00
2023-05-02T10:47:48.351Z,510.00
2023-05-02T10:48:48.363Z,650.00
2023-05-02T10:49:48.404Z,660.00
2023-05-02T10:50:48.436Z,617.00
2023-05-02T10:51:48.457Z,664.00
2023-05-02T10:52:48.535Z,683.00
2023-05-02T10:53:48.551Z,806.00
2023-05-02T10:54:48.537Z,814.00
2023-05-02T10:55:48.575Z,810.00
2023-05-02T10:56:48.617Z,817.00
2023-05-02T10:57:48.674Z,878.00
2023-05-02T10:58:48.626Z,851.00
2023-05-02T10:59:48.651Z,854.00
2023-05-02T11:00:48.739Z,895.00
2023-05-02T11:01:48.681Z,894.00
2023-05-02T11:02:48.876Z,924.00
2023-05-02T11:03:48.824Z,928.00
2023-05-02T11:04:48.718Z,895.00
2023-05-02T11:05:48.715Z,910.00
2023-05-02T11:06:48.745Z,958.00
2023-05-02T11:07:48.738Z,977.00
2023-05-02T11:08:48.739Z,943.00
2023-05-02T11:09:48.751Z,892.00
2023-05-02T11:10:48.760Z,920.00
2023-05-02T11:11:48.782Z,890.00
2023-05-02T11:12:48.785Z,847.00
2023-05-02T11:13:48.814Z,886.00
2023-05-02T11:14:48.841Z,869.00
2023-05-02T11:15:48.804Z,892.00
2023-05-02T11:16:48.818Z,953.00
2023-05-02T11:17:48.904Z,917.00
2023-05-02T11:18:49.341Z,895.00
2023-05-02T11:19:48.814Z,831.00
2023-05-02T11:20:48.844Z,874.00
2023-05-02T11:21:48.864Z,958.00
2023-05-02T11:22:48.858Z,961.00
2023-05-02T11:23:48.848Z,935.00
2023-05-02T11:24:48.864Z,919.00
2023-05-02T11:25:48.883Z,884.00
2023-05-02T11:26:48.874Z,940.00
2023-05-02T11:27:48.876Z,880.00
2023-05-02T11:28:48.889Z,951.00
2023-05-02T11:29:48.841Z,947.00
2023-05-02T11:30:48.924Z,911.00
2023-05-02T11:31:48.853Z,928.00
2023-05-02T11:32:48.888Z,868.00
2023-05-02T11:33:48.868Z,767.00
2023-05-02T11:34:48.883Z,732.00
2023-05-02T11:35:49.053Z,694.00
2023-05-02T11:36:48.890Z,683.00
2023-05-02T11:37:48.885Z,664.00
2023-05-02T11:38:48.865Z,684.00
2023-05-02T11:39:48.923Z,653.00
2023-05-02T11:40:48.923Z,658.00
2023-05-02T11:41:49.001Z,631.00
2023-05-02T11:42:49.007Z,634.00
2023-05-02T11:43:49.359Z,624.00
2023-05-02T11:44:49.045Z,621.00
2023-05-02T11:45:49.107Z,623.00
2023-05-02T11:46:49.210Z,609.00
2023-05-02T11:47:49.192Z,603.00
2023-05-02T11:48:49.167Z,596.00
2023-05-02T11:49:49.194Z,582.00
2023-05-02T11:50:50.396Z,581.00
2023-05-02T11:51:49.301Z,572.00
2023-05-02T11:52:49.324Z,573.00
2023-05-02T11:53:49.336Z,556.00
2023-05-02T11:54:49.385Z,555.00
2023-05-02T11:55:49.401Z,548.00
2023-05-02T11:56:49.437Z,544.00
2023-05-02T11:57:49.532Z,544.00
2023-05-02T11:58:49.514Z,533.00
2023-05-02T11:59:49.574Z,526.00
2023-05-02T12:00:49.631Z,518.00
2023-05-02T12:01:49.695Z,519.00
2023-05-02T12:02:49.838Z,518.00
2023-05-02T12:03:49.902Z,511.00
2023-05-02T12:04:49.806Z,500.00
2023-05-02T12:05:49.918Z,512.00
2023-05-02T12:06:49.960Z,508.00
2023-05-02T12:07:49.991Z,503.00
2023-05-02T12:08:50.003Z,505.00
2023-05-02T12:09:50.050Z,501.00
2023-05-02T12:10:50.129Z,510.00
2023-05-02T12:11:50.162Z,508.00